sensor_id;sensor_type;location;lat;lon;timestamp;pressure;altitude;pressure_sealevel;temperature;humidity
73981;BME280;62348;51.412;5.436;2023-03-26T00:01:26;100610.97;;;7.77;93.59
73981;BME280;62348;51.412;5.436;2023-03-26T00:03:53;100608.28;;;7.77;93.50
73981;BME280;62348;51.412;5.436;2023-03-26T00:06:26;100612.53;;;7.73;93.41
73981;BME280;62348;51.412;5.436;2023-03-26T00:08:54;100609.28;;;7.71;93.43
73981;BME280;62348;51.412;5.436;2023-03-26T00:11:21;100605.44;;;7.67;93.47
73981;BME280;62348;51.412;5.436;2023-03-26T00:13:48;100600.06;;;7.67;93.39
73981;BME280;62348;51.412;5.436;2023-03-26T00:16:16;100602.19;;;7.65;94.07
73981;BME280;62348;51.412;5.436;2023-03-26T00:18:43;100598.44;;;7.66;93.65
73981;BME280;62348;51.412;5.436;2023-03-26T00:21:15;100592.97;;;7.60;93.50
73981;BME280;62348;51.412;5.436;2023-03-26T00:23:42;100599.41;;;7.59;93.54
73981;BME280;62348;51.412;5.436;2023-03-26T00:26:08;100582.72;;;7.57;93.56
73981;BME280;62348;51.412;5.436;2023-03-26T00:28:39;100590.78;;;7.57;93.59
73981;BME280;62348;51.412;5.436;2023-03-26T00:31:07;100584.84;;;7.55;93.69
73981;BME280;62348;51.412;5.436;2023-03-26T00:33:34;100584.50;;;7.52;93.51
73981;BME280;62348;51.412;5.436;2023-03-26T00:36:04;100584.44;;;7.47;93.28
73981;BME280;62348;51.412;5.436;2023-03-26T00:38:30;100581.50;;;7.48;94.02
73981;BME280;62348;51.412;5.436;2023-03-26T00:40:59;100577.66;;;7.44;93.68
73981;BME280;62348;51.412;5.436;2023-03-26T00:43:31;100576.84;;;7.43;93.66
73981;BME280;62348;51.412;5.436;2023-03-26T00:45:57;100568.94;;;7.37;93.42
73981;BME280;62348;51.412;5.436;2023-03-26T00:48:22;100572.44;;;7.37;93.79
73981;BME280;62348;51.412;5.436;2023-03-26T00:50:49;100569.44;;;7.34;94.06
73981;BME280;62348;51.412;5.436;2023-03-26T00:53:15;100572.97;;;7.34;94.20
73981;BME280;62348;51.412;5.436;2023-03-26T00:55:45;100564.63;;;7.36;94.05
73981;BME280;62348;51.412;5.436;2023-03-26T00:58:12;100568.06;;;7.31;93.72
73981;BME280;62348;51.412;5.436;2023-03-26T01:00:45;100561.38;;;7.34;94.05
73981;BME280;62348;51.412;5.436;2023-03-26T01:03:14;100551.91;;;7.31;93.80
73981;BME280;62348;51.412;5.436;2023-03-26T01:05:49;100552.16;;;7.30;94.51
73981;BME280;62348;51.412;5.436;2023-03-26T01:08:31;100548.66;;;7.29;94.25
73981;BME280;62348;51.412;5.436;2023-03-26T01:11:01;100537.66;;;7.31;94.70
73981;BME280;62348;51.412;5.436;2023-03-26T01:13:32;100528.47;;;7.27;94.18
73981;BME280;62348;51.412;5.436;2023-03-26T01:16:00;100531.44;;;7.30;94.02
73981;BME280;62348;51.412;5.436;2023-03-26T01:18:28;100521.22;;;7.27;94.71
73981;BME280;62348;51.412;5.436;2023-03-26T01:20:59;100518.19;;;7.23;94.55
73981;BME280;62348;51.412;5.436;2023-03-26T01:23:44;100515.50;;;7.23;94.34
73981;BME280;62348;51.412;5.436;2023-03-26T01:28:42;100500.94;;;7.19;93.89
73981;BME280;62348;51.412;5.436;2023-03-26T01:31:39;100506.78;;;7.16;94.23
73981;BME280;62348;51.412;5.436;2023-03-26T01:35:06;100494.97;;;7.17;93.99
73981;BME280;62348;51.412;5.436;2023-03-26T01:40:20;100498.06;;;7.09;94.06
73981;BME280;62348;51.412;5.436;2023-03-26T01:42:57;100495.88;;;7.06;94.56
73981;BME280;62348;51.412;5.436;2023-03-26T01:45:28;100492.88;;;7.02;94.83
73981;BME280;62348;51.412;5.436;2023-03-26T01:47:56;100489.84;;;6.99;94.91
73981;BME280;62348;51.412;5.436;2023-03-26T01:50:21;100495.00;;;7.00;94.37
73981;BME280;62348;51.412;5.436;2023-03-26T01:52:47;100481.00;;;6.98;94.34
73981;BME280;62348;51.412;5.436;2023-03-26T01:55:12;100477.13;;;6.94;94.69
73981;BME280;62348;51.412;5.436;2023-03-26T01:57:53;100480.91;;;6.93;94.88
73981;BME280;62348;51.412;5.436;2023-03-26T02:00:31;100466.91;;;6.91;95.35
73981;BME280;62348;51.412;5.436;2023-03-26T02:03:18;100471.47;;;6.91;95.21
73981;BME280;62348;51.412;5.436;2023-03-26T02:06:21;100465.81;;;6.92;95.24
73981;BME280;62348;51.412;5.436;2023-03-26T02:08:51;100459.56;;;6.87;95.03
73981;BME280;62348;51.412;5.436;2023-03-26T02:11:18;100464.44;;;6.90;95.48
73981;BME280;62348;51.412;5.436;2023-03-26T02:13:45;100449.63;;;6.87;95.63
73981;BME280;62348;51.412;5.436;2023-03-26T02:16:13;100445.31;;;6.86;95.42
73981;BME280;62348;51.412;5.436;2023-03-26T02:18:40;100435.13;;;6.88;95.47
73981;BME280;62348;51.412;5.436;2023-03-26T02:21:10;100429.19;;;6.86;95.72
73981;BME280;62348;51.412;5.436;2023-03-26T02:23:39;100431.06;;;6.86;95.55
73981;BME280;62348;51.412;5.436;2023-03-26T02:26:06;100430.50;;;6.83;95.77
73981;BME280;62348;51.412;5.436;2023-03-26T02:28:32;100423.47;;;6.82;95.79
73981;BME280;62348;51.412;5.436;2023-03-26T02:30:58;100433.75;;;6.86;95.97
73981;BME280;62348;51.412;5.436;2023-03-26T02:33:27;100427.81;;;6.83;95.55
73981;BME280;62348;51.412;5.436;2023-03-26T02:35:52;100425.69;;;6.86;94.99
73981;BME280;62348;51.412;5.436;2023-03-26T02:38:17;100426.75;;;6.84;95.37
73981;BME280;62348;51.412;5.436;2023-03-26T02:40:43;100418.69;;;6.84;95.14
73981;BME280;62348;51.412;5.436;2023-03-26T02:43:09;100410.38;;;6.86;95.49
73981;BME280;62348;51.412;5.436;2023-03-26T02:45:34;100412.81;;;6.88;95.32
73981;BME280;62348;51.412;5.436;2023-03-26T02:47:59;100399.63;;;6.86;95.24
73981;BME280;62348;51.412;5.436;2023-03-26T02:50:25;100399.06;;;6.84;95.48
73981;BME280;62348;51.412;5.436;2023-03-26T02:52:51;100399.63;;;6.86;95.35
73981;BME280;62348;51.412;5.436;2023-03-26T02:55:16;100391.00;;;6.84;95.53
73981;BME280;62348;51.412;5.436;2023-03-26T02:57:42;100391.56;;;6.86;95.26
73981;BME280;62348;51.412;5.436;2023-03-26T03:00:07;100382.22;;;6.89;94.91
73981;BME280;62348;51.412;5.436;2023-03-26T03:02:33;100375.69;;;6.84;95.42
73981;BME280;62348;51.412;5.436;2023-03-26T03:05:01;100372.50;;;6.88;94.94
73981;BME280;62348;51.412;5.436;2023-03-26T03:07:30;100365.75;;;6.85;95.27
73981;BME280;62348;51.412;5.436;2023-03-26T03:09:56;100365.25;;;6.88;95.50
73981;BME280;62348;51.412;5.436;2023-03-26T03:12:26;100369.56;;;6.89;95.41
73981;BME280;62348;51.412;5.436;2023-03-26T03:14:52;100355.91;;;6.91;95.05
73981;BME280;62348;51.412;5.436;2023-03-26T03:17:17;100356.69;;;6.91;95.20
73981;BME280;62348;51.412;5.436;2023-03-26T03:19:45;100351.31;;;6.91;95.53
73981;BME280;62348;51.412;5.436;2023-03-26T03:22:10;100351.88;;;6.93;95.74
73981;BME280;62348;51.412;5.436;2023-03-26T03:24:36;100345.16;;;6.91;96.06
73981;BME280;62348;51.412;5.436;2023-03-26T03:27:03;100337.13;;;6.96;96.32
73981;BME280;62348;51.412;5.436;2023-03-26T03:29:28;100342.50;;;6.96;96.29
73981;BME280;62348;51.412;5.436;2023-03-26T03:31:54;100331.75;;;6.96;96.62
73981;BME280;62348;51.412;5.436;2023-03-26T03:34:19;100328.25;;;6.95;96.81
73981;BME280;62348;51.412;5.436;2023-03-26T03:36:45;100334.44;;;6.96;96.81
73981;BME280;62348;51.412;5.436;2023-03-26T03:39:13;100332.59;;;6.96;96.98
73981;BME280;62348;51.412;5.436;2023-03-26T03:41:39;100334.75;;;6.99;97.33
73981;BME280;62348;51.412;5.436;2023-03-26T03:44:05;100329.91;;;6.96;97.72
73981;BME280;62348;51.412;5.436;2023-03-26T03:46:30;100324.81;;;7.00;97.81
73981;BME280;62348;51.412;5.436;2023-03-26T03:48:56;100318.38;;;7.01;98.08
73981;BME280;62348;51.412;5.436;2023-03-26T03:51:22;100315.94;;;6.99;98.51
73981;BME280;62348;51.412;5.436;2023-03-26T03:53:48;100311.69;;;7.03;98.63
73981;BME280;62348;51.412;5.436;2023-03-26T03:56:14;100303.63;;;7.03;98.86
73981;BME280;62348;51.412;5.436;2023-03-26T03:58:43;100302.56;;;7.04;98.72
73981;BME280;62348;51.412;5.436;2023-03-26T04:01:11;100300.44;;;7.07;98.89
73981;BME280;62348;51.412;5.436;2023-03-26T04:03:38;100294.81;;;7.08;99.12
73981;BME280;62348;51.412;5.436;2023-03-26T04:06:05;100291.06;;;7.09;99.11
73981;BME280;62348;51.412;5.436;2023-03-26T04:08:31;100288.38;;;7.09;99.40
73981;BME280;62348;51.412;5.436;2023-03-26T04:10:56;100285.44;;;7.11;99.51
73981;BME280;62348;51.412;5.436;2023-03-26T04:13:22;100275.50;;;7.11;99.50
73981;BME280;62348;51.412;5.436;2023-03-26T04:15:47;100266.38;;;7.12;99.67
73981;BME280;62348;51.412;5.436;2023-03-26T04:18:13;100270.94;;;7.12;99.84
73981;BME280;62348;51.412;5.436;2023-03-26T04:20:40;100260.19;;;7.12;99.79
73981;BME280;62348;51.412;5.436;2023-03-26T04:23:15;100256.66;;;7.11;99.83
73981;BME280;62348;51.412;5.436;2023-03-26T04:25:49;100249.69;;;7.10;100.00
73981;BME280;62348;51.412;5.436;2023-03-26T04:28:32;100252.94;;;7.12;100.00
73981;BME280;62348;51.412;5.436;2023-03-26T04:31:00;100242.41;;;7.11;100.00
73981;BME280;62348;51.412;5.436;2023-03-26T04:33:32;100235.44;;;7.10;100.00
73981;BME280;62348;51.412;5.436;2023-03-26T04:35:59;100227.38;;;7.10;100.00
73981;BME280;62348;51.412;5.436;2023-03-26T04:38:29;100228.97;;;7.11;99.99
73981;BME280;62348;51.412;5.436;2023-03-26T04:40:58;100224.94;;;7.08;99.96
73981;BME280;62348;51.412;5.436;2023-03-26T04:43:27;100213.38;;;7.08;99.74
73981;BME280;62348;51.412;5.436;2023-03-26T04:45:54;100210.69;;;7.08;99.78
73981;BME280;62348;51.412;5.436;2023-03-26T04:48:20;100206.59;;;7.05;100.00
73981;BME280;62348;51.412;5.436;2023-03-26T04:50:46;100207.69;;;7.04;99.80
73981;BME280;62348;51.412;5.436;2023-03-26T04:53:14;100194.50;;;7.02;99.94
73981;BME280;62348;51.412;5.436;2023-03-26T04:55:55;100191.00;;;7.02;99.82
73981;BME280;62348;51.412;5.436;2023-03-26T04:58:21;100179.94;;;6.98;99.71
73981;BME280;62348;51.412;5.436;2023-03-26T05:00:54;100185.31;;;6.98;99.69
73981;BME280;62348;51.412;5.436;2023-03-26T05:03:19;100179.38;;;6.96;99.89
73981;BME280;62348;51.412;5.436;2023-03-26T05:05:45;100177.25;;;6.98;99.99
73981;BME280;62348;51.412;5.436;2023-03-26T05:08:10;100175.38;;;6.99;100.00
73981;BME280;62348;51.412;5.436;2023-03-26T05:10:36;100171.59;;;7.00;100.00
73981;BME280;62348;51.412;5.436;2023-03-26T05:13:01;100180.50;;;7.00;100.00
73981;BME280;62348;51.412;5.436;2023-03-26T05:15:27;100174.28;;;7.00;100.00
73981;BME280;62348;51.412;5.436;2023-03-26T05:17:52;100170.47;;;6.96;100.00
73981;BME280;62348;51.412;5.436;2023-03-26T05:20:29;100167.31;;;6.99;100.00
73981;BME280;62348;51.412;5.436;2023-03-26T05:22:54;100169.19;;;6.98;100.00
73981;BME280;62348;51.412;5.436;2023-03-26T05:25:20;100159.75;;;6.96;100.00
73981;BME280;62348;51.412;5.436;2023-03-26T05:27:46;100157.88;;;6.96;100.00
73981;BME280;62348;51.412;5.436;2023-03-26T05:30:17;100154.34;;;6.96;100.00
73981;BME280;62348;51.412;5.436;2023-03-26T05:32:43;100146.84;;;6.98;100.00
73981;BME280;62348;51.412;5.436;2023-03-26T05:35:08;100136.94;;;6.98;100.00
73981;BME280;62348;51.412;5.436;2023-03-26T05:37:34;100137.75;;;6.99;100.00
73981;BME280;62348;51.412;5.436;2023-03-26T05:39:59;100140.44;;;6.99;100.00
73981;BME280;62348;51.412;5.436;2023-03-26T05:42:25;100129.69;;;6.99;100.00
73981;BME280;62348;51.412;5.436;2023-03-26T05:44:50;100123.50;;;6.98;100.00
73981;BME280;62348;51.412;5.436;2023-03-26T05:47:16;100118.91;;;6.99;100.00
73981;BME280;62348;51.412;5.436;2023-03-26T05:49:41;100109.22;;;6.98;100.00
73981;BME280;62348;51.412;5.436;2023-03-26T05:52:07;100106.53;;;6.98;100.00
73981;BME280;62348;51.412;5.436;2023-03-26T05:54:32;100106.53;;;6.98;100.00
73981;BME280;62348;51.412;5.436;2023-03-26T05:56:57;100099.31;;;6.98;100.00
73981;BME280;62348;51.412;5.436;2023-03-26T05:59:24;100098.47;;;6.98;100.00
73981;BME280;62348;51.412;5.436;2023-03-26T06:01:50;100096.63;;;6.98;99.94
73981;BME280;62348;51.412;5.436;2023-03-26T06:04:16;100099.03;;;7.00;99.85
73981;BME280;62348;51.412;5.436;2023-03-26T06:06:42;100091.25;;;6.98;99.89
73981;BME280;62348;51.412;5.436;2023-03-26T06:09:09;100093.38;;;6.96;99.95
73981;BME280;62348;51.412;5.436;2023-03-26T06:11:38;100088.56;;;6.98;100.00
73981;BME280;62348;51.412;5.436;2023-03-26T06:14:04;100088.00;;;6.96;100.00
73981;BME280;62348;51.412;5.436;2023-03-26T06:16:29;100082.63;;;6.96;100.00
73981;BME280;62348;51.412;5.436;2023-03-26T06:18:56;100079.94;;;6.96;100.00
73981;BME280;62348;51.412;5.436;2023-03-26T06:21:22;100085.59;;;7.00;100.00
73981;BME280;62348;51.412;5.436;2023-03-26T06:23:47;100081.03;;;7.00;100.00
73981;BME280;62348;51.412;5.436;2023-03-26T06:26:13;100080.78;;;7.02;100.00
73981;BME280;62348;51.412;5.436;2023-03-26T06:28:39;100089.09;;;7.00;100.00
73981;BME280;62348;51.412;5.436;2023-03-26T06:31:07;100085.88;;;6.98;100.00
73981;BME280;62348;51.412;5.436;2023-03-26T06:33:33;100085.31;;;6.96;100.00
73981;BME280;62348;51.412;5.436;2023-03-26T06:35:58;100085.31;;;6.96;100.00
73981;BME280;62348;51.412;5.436;2023-03-26T06:38:24;100085.88;;;6.98;100.00
73981;BME280;62348;51.412;5.436;2023-03-26T06:40:50;100089.34;;;6.99;100.00
73981;BME280;62348;51.412;5.436;2023-03-26T06:43:15;100087.16;;;6.96;100.00
73981;BME280;62348;51.412;5.436;2023-03-26T06:45:40;100081.78;;;6.96;100.00
73981;BME280;62348;51.412;5.436;2023-03-26T06:48:06;100079.34;;;6.94;100.00
73981;BME280;62348;51.412;5.436;2023-03-26T06:50:32;100080.44;;;6.93;100.00
73981;BME280;62348;51.412;5.436;2023-03-26T06:52:58;100080.44;;;6.93;100.00
73981;BME280;62348;51.412;5.436;2023-03-26T06:55:24;100078.81;;;6.92;100.00
73981;BME280;62348;51.412;5.436;2023-03-26T06:57:52;100075.31;;;6.92;100.00
73981;BME280;62348;51.412;5.436;2023-03-26T07:00:18;100076.94;;;6.93;100.00
73981;BME280;62348;51.412;5.436;2023-03-26T07:02:44;100074.25;;;6.93;100.00
73981;BME280;62348;51.412;5.436;2023-03-26T07:05:09;100075.88;;;6.94;100.00
73981;BME280;62348;51.412;5.436;2023-03-26T07:07:35;100068.34;;;6.96;100.00
73981;BME280;62348;51.412;5.436;2023-03-26T07:10:00;100060.84;;;6.98;100.00
73981;BME280;62348;51.412;5.436;2023-03-26T07:12:26;100064.38;;;6.98;100.00
73981;BME280;62348;51.412;5.436;2023-03-26T07:14:51;100060.59;;;6.99;100.00
73981;BME280;62348;51.412;5.436;2023-03-26T07:17:17;100056.84;;;7.00;100.00
73981;BME280;62348;51.412;5.436;2023-03-26T07:19:42;100054.97;;;7.01;100.00
73981;BME280;62348;51.412;5.436;2023-03-26T07:22:20;100052.03;;;7.02;100.00
73981;BME280;62348;51.412;5.436;2023-03-26T07:24:46;100047.97;;;7.00;100.00
73981;BME280;62348;51.412;5.436;2023-03-26T07:27:27;100055.28;;;7.04;100.00
73981;BME280;62348;51.412;5.436;2023-03-26T07:30:07;100049.34;;;7.02;100.00
73981;BME280;62348;51.412;5.436;2023-03-26T07:32:53;100044.50;;;7.04;100.00
73981;BME280;62348;51.412;5.436;2023-03-26T07:35:29;100048.81;;;7.06;100.00
73981;BME280;62348;51.412;5.436;2023-03-26T07:41:15;100037.56;;;7.09;100.00
73981;BME280;62348;51.412;5.436;2023-03-26T07:43:46;100038.34;;;7.09;100.00
73981;BME280;62348;51.412;5.436;2023-03-26T07:46:16;100038.09;;;7.11;100.00
73981;BME280;62348;51.412;5.436;2023-03-26T07:48:45;100031.13;;;7.10;100.00
73981;BME280;62348;51.412;5.436;2023-03-26T07:51:12;100035.16;;;7.12;100.00
73981;BME280;62348;51.412;5.436;2023-03-26T07:53:38;100029.53;;;7.14;100.00
73981;BME280;62348;51.412;5.436;2023-03-26T07:56:15;100025.75;;;7.15;100.00
73981;BME280;62348;51.412;5.436;2023-03-26T08:04:23;100021.78;;;7.17;100.00
73981;BME280;62348;51.412;5.436;2023-03-26T08:07:14;100019.63;;;7.19;100.00
73981;BME280;62348;51.412;5.436;2023-03-26T08:10:07;100018.53;;;7.20;100.00
73981;BME280;62348;51.412;5.436;2023-03-26T08:15:35;100010.72;;;7.19;100.00
73981;BME280;62348;51.412;5.436;2023-03-26T08:18:36;100010.22;;;7.22;100.00
73981;BME280;62348;51.412;5.436;2023-03-26T08:21:09;100008.34;;;7.22;100.00
73981;BME280;62348;51.412;5.436;2023-03-26T08:23:49;100009.72;;;7.25;100.00
73981;BME280;62348;51.412;5.436;2023-03-26T08:26:35;100007.84;;;7.26;100.00
73981;BME280;62348;51.412;5.436;2023-03-26T08:31:53;100002.19;;;7.27;100.00
73981;BME280;62348;51.412;5.436;2023-03-26T08:34:19;100010.03;;;7.29;100.00
73981;BME280;62348;51.412;5.436;2023-03-26T08:36:45;100007.31;;;7.29;100.00
73981;BME280;62348;51.412;5.436;2023-03-26T08:39:10;100001.94;;;7.29;100.00
73981;BME280;62348;51.412;5.436;2023-03-26T09:01:40;100001.97;;;7.34;100.00
73981;BME280;62348;51.412;5.436;2023-03-26T09:04:25;99992.59;;;7.36;100.00
73981;BME280;62348;51.412;5.436;2023-03-26T09:22:19;99999.34;;;7.44;100.00
73981;BME280;62348;51.412;5.436;2023-03-26T09:31:11;100000.94;;;7.40;100.00
73981;BME280;62348;51.412;5.436;2023-03-26T09:36:32;99999.31;;;7.39;100.00
73981;BME280;62348;51.412;5.436;2023-03-26T09:39:58;99999.31;;;7.39;100.00
73981;BME280;62348;51.412;5.436;2023-03-26T09:50:44;99998.97;;;7.30;100.00
73981;BME280;62348;51.412;5.436;2023-03-26T10:01:43;99999.78;;;7.26;99.12
73981;BME280;62348;51.412;5.436;2023-03-26T10:04:32;100010.81;;;7.29;99.60
73981;BME280;62348;51.412;5.436;2023-03-26T10:10:28;100005.69;;;7.28;98.23
73981;BME280;62348;51.412;5.436;2023-03-26T10:13:20;100008.63;;;7.26;98.31
73981;BME280;62348;51.412;5.436;2023-03-26T10:36:05;100013.56;;;7.39;98.83
73981;BME280;62348;51.412;5.436;2023-03-26T10:38:58;100017.34;;;7.38;97.50
73981;BME280;62348;51.412;5.436;2023-03-26T10:41:48;100016.50;;;7.33;97.05
73981;BME280;62348;51.412;5.436;2023-03-26T10:56:01;100014.06;;;7.31;98.29
73981;BME280;62348;51.412;5.436;2023-03-26T10:58:33;100020.25;;;7.32;96.44
73981;BME280;62348;51.412;5.436;2023-03-26T11:01:02;100019.44;;;7.31;98.02
73981;BME280;62348;51.412;5.436;2023-03-26T11:03:50;100026.16;;;7.34;98.31
73981;BME280;62348;51.412;5.436;2023-03-26T11:11:22;100026.53;;;7.48;98.95
73981;BME280;62348;51.412;5.436;2023-03-26T11:14:01;100032.97;;;7.47;97.27
73981;BME280;62348;51.412;5.436;2023-03-26T11:16:50;100031.94;;;7.53;96.68
73981;BME280;62348;51.412;5.436;2023-03-26T11:19:51;100028.97;;;7.54;96.60
73981;BME280;62348;51.412;5.436;2023-03-26T11:25:10;100029.53;;;7.51;95.04
73981;BME280;62348;51.412;5.436;2023-03-26T11:30:27;100029.78;;;7.55;98.19
73981;BME280;62348;51.412;5.436;2023-03-26T11:33:02;100037.09;;;7.59;98.28
73981;BME280;62348;51.412;5.436;2023-03-26T11:35:33;100032.50;;;7.60;97.61
73981;BME280;62348;51.412;5.436;2023-03-26T11:38:05;100038.19;;;7.63;97.71
73981;BME280;62348;51.412;5.436;2023-03-26T11:40:34;100038.72;;;7.66;97.33
73981;BME280;62348;51.412;5.436;2023-03-26T11:43:04;100041.94;;;7.62;96.98
73981;BME280;62348;51.412;5.436;2023-03-26T11:45:34;100046.28;;;7.69;97.50
73981;BME280;62348;51.412;5.436;2023-03-26T11:50:37;100044.44;;;7.74;97.40
73981;BME280;62348;51.412;5.436;2023-03-26T11:53:32;100050.91;;;7.78;96.90
73981;BME280;62348;51.412;5.436;2023-03-26T11:56:10;100053.59;;;7.78;97.85
73981;BME280;62348;51.412;5.436;2023-03-26T12:01:20;100050.13;;;7.83;98.07
73981;BME280;62348;51.412;5.436;2023-03-26T12:04:24;100055.03;;;7.91;98.22
73981;BME280;62348;51.412;5.436;2023-03-26T12:06:58;100054.19;;;7.91;97.57
73981;BME280;62348;51.412;5.436;2023-03-26T12:09:29;100053.69;;;7.94;97.35
73981;BME280;62348;51.412;5.436;2023-03-26T12:11:59;100057.72;;;7.96;98.37
73981;BME280;62348;51.412;5.436;2023-03-26T12:14:29;100054.50;;;7.99;97.57
73981;BME280;62348;51.412;5.436;2023-03-26T12:17:34;100062.88;;;8.03;98.20
73981;BME280;62348;51.412;5.436;2023-03-26T12:20:01;100060.44;;;8.01;97.69
73981;BME280;62348;51.412;5.436;2023-03-26T12:22:46;100065.00;;;7.96;96.91
73981;BME280;62348;51.412;5.436;2023-03-26T12:25:19;100058.25;;;7.93;96.89
73981;BME280;62348;51.412;5.436;2023-03-26T12:28:15;100065.78;;;7.96;97.37
73981;BME280;62348;51.412;5.436;2023-03-26T12:31:00;100065.00;;;7.96;97.88
73981;BME280;62348;51.412;5.436;2023-03-26T12:33:29;100067.94;;;7.94;96.72
73981;BME280;62348;51.412;5.436;2023-03-26T12:35:59;100065.78;;;7.96;98.31
73981;BME280;62348;51.412;5.436;2023-03-26T12:38:40;100070.13;;;7.97;98.03
73981;BME280;62348;51.412;5.436;2023-03-26T12:41:07;100075.78;;;8.01;97.92
73981;BME280;62348;51.412;5.436;2023-03-26T12:43:49;100077.66;;;8.00;98.37
73981;BME280;62348;51.412;5.436;2023-03-26T12:46:23;100081.44;;;7.99;98.24
73981;BME280;62348;51.412;5.436;2023-03-26T12:48:51;100072.56;;;7.99;98.18
73981;BME280;62348;51.412;5.436;2023-03-26T13:13:21;100090.06;;;8.01;96.15
73981;BME280;62348;51.412;5.436;2023-03-26T13:15:52;100093.56;;;8.02;97.30
73981;BME280;62348;51.412;5.436;2023-03-26T13:32:17;100104.97;;;8.19;97.17
73981;BME280;62348;51.412;5.436;2023-03-26T13:37:43;100107.66;;;8.25;96.66
73981;BME280;62348;51.412;5.436;2023-03-26T13:40:16;100102.53;;;8.23;96.38
73981;BME280;62348;51.412;5.436;2023-03-26T13:48:24;100110.66;;;8.33;97.27
73981;BME280;62348;51.412;5.436;2023-03-26T13:53:55;100121.97;;;8.35;96.88
73981;BME280;62348;51.412;5.436;2023-03-26T13:56:28;100118.19;;;8.36;98.03
73981;BME280;62348;51.412;5.436;2023-03-26T13:59:07;100126.38;;;8.47;98.05
73981;BME280;62348;51.412;5.436;2023-03-26T14:01:44;100124.22;;;8.49;98.08
73981;BME280;62348;51.412;5.436;2023-03-26T14:04:20;100129.88;;;8.47;97.65
73981;BME280;62348;51.412;5.436;2023-03-26T14:06:56;100125.28;;;8.48;96.94
73981;BME280;62348;51.412;5.436;2023-03-26T14:09:30;100129.56;;;8.38;96.91
73981;BME280;62348;51.412;5.436;2023-03-26T14:14:54;100143.00;;;8.33;96.87
73981;BME280;62348;51.412;5.436;2023-03-26T14:17:37;100148.09;;;8.30;97.18
73981;BME280;62348;51.412;5.436;2023-03-26T14:25:46;100149.63;;;8.15;95.92
73981;BME280;62348;51.412;5.436;2023-03-26T14:33:55;100174.31;;;7.97;96.45
73981;BME280;62348;51.412;5.436;2023-03-26T14:48:04;100188.72;;;7.80;98.20
73981;BME280;62348;51.412;5.436;2023-03-26T14:53:37;100194.31;;;7.74;98.16
73981;BME280;62348;51.412;5.436;2023-03-26T14:59:18;100219.31;;;7.69;97.63
73981;BME280;62348;51.412;5.436;2023-03-26T15:10:43;100241.09;;;7.68;96.67
73981;BME280;62348;51.412;5.436;2023-03-26T15:16:05;100248.78;;;7.54;95.07
73981;BME280;62348;51.412;5.436;2023-03-26T15:24:34;100267.06;;;7.52;95.57
73981;BME280;62348;51.412;5.436;2023-03-26T15:27:36;100272.44;;;7.52;95.47
73981;BME280;62348;51.412;5.436;2023-03-26T15:51:51;100317.44;;;7.34;93.55
73981;BME280;62348;51.412;5.436;2023-03-26T15:54:24;100328.69;;;7.31;94.03
73981;BME280;62348;51.412;5.436;2023-03-26T15:57:12;100333.50;;;7.29;94.69
73981;BME280;62348;51.412;5.436;2023-03-26T16:05:44;100344.19;;;7.24;95.15
73981;BME280;62348;51.412;5.436;2023-03-26T16:10:56;100347.97;;;7.23;96.43
73981;BME280;62348;51.412;5.436;2023-03-26T16:29:04;100381.13;;;7.29;95.58
73981;BME280;62348;51.412;5.436;2023-03-26T16:34:26;100390.00;;;7.29;95.88
73981;BME280;62348;51.412;5.436;2023-03-26T16:36:53;100395.38;;;7.29;96.26
73981;BME280;62348;51.412;5.436;2023-03-26T16:39:25;100395.63;;;7.28;95.79
73981;BME280;62348;51.412;5.436;2023-03-26T16:47:33;100416.66;;;7.31;94.02
73981;BME280;62348;51.412;5.436;2023-03-26T16:53:08;100434.34;;;7.27;91.78
73981;BME280;62348;51.412;5.436;2023-03-26T16:55:52;100442.66;;;7.25;93.27
73981;BME280;62348;51.412;5.436;2023-03-26T17:01:46;100461.16;;;7.21;90.77
73981;BME280;62348;51.412;5.436;2023-03-26T17:04:18;100478.00;;;7.17;89.65
73981;BME280;62348;51.412;5.436;2023-03-26T17:10:12;100478.59;;;7.19;87.48
73981;BME280;62348;51.412;5.436;2023-03-26T17:12:50;100497.50;;;7.07;88.39
73981;BME280;62348;51.412;5.436;2023-03-26T17:15:52;100502.88;;;7.07;87.79
73981;BME280;62348;51.412;5.436;2023-03-26T17:24:37;100524.94;;;6.92;87.02
73981;BME280;62348;51.412;5.436;2023-03-26T17:27:38;100533.75;;;6.88;86.91
73981;BME280;62348;51.412;5.436;2023-03-26T17:32:58;100553.31;;;6.83;85.86
73981;BME280;62348;51.412;5.436;2023-03-26T17:35:49;100545.00;;;6.84;85.78
73981;BME280;62348;51.412;5.436;2023-03-26T17:40:55;100564.78;;;6.78;85.50
73981;BME280;62348;51.412;5.436;2023-03-26T17:45:57;100584.78;;;6.71;84.06
73981;BME280;62348;51.412;5.436;2023-03-26T17:48:26;100581.53;;;6.69;85.56
73981;BME280;62348;51.412;5.436;2023-03-26T17:50:58;100580.16;;;6.66;85.90
73981;BME280;62348;51.412;5.436;2023-03-26T17:53:28;100599.19;;;6.64;83.77
73981;BME280;62348;51.412;5.436;2023-03-26T17:56:01;100602.34;;;6.61;82.68
73981;BME280;62348;51.412;5.436;2023-03-26T17:58:33;100600.16;;;6.58;82.53
73981;BME280;62348;51.412;5.436;2023-03-26T18:03:44;100623.50;;;6.58;81.76
73981;BME280;62348;51.412;5.436;2023-03-26T18:06:27;100629.03;;;6.51;82.75
73981;BME280;62348;51.412;5.436;2023-03-26T18:15:33;100645.38;;;6.50;83.57
73981;BME280;62348;51.412;5.436;2023-03-26T18:20:36;100661.03;;;6.41;79.64
73981;BME280;62348;51.412;5.436;2023-03-26T18:23:11;100662.34;;;6.38;80.46
73981;BME280;62348;51.412;5.436;2023-03-26T18:26:08;100662.81;;;6.35;81.26
73981;BME280;62348;51.412;5.436;2023-03-26T18:28:40;100676.72;;;6.32;81.47
73981;BME280;62348;51.412;5.436;2023-03-26T18:31:14;100686.41;;;6.33;81.84
73981;BME280;62348;51.412;5.436;2023-03-26T18:33:44;100695.19;;;6.29;80.93
73981;BME280;62348;51.412;5.436;2023-03-26T18:36:10;100708.03;;;6.27;78.84
73981;BME280;62348;51.412;5.436;2023-03-26T18:38:35;100701.84;;;6.26;78.62
73981;BME280;62348;51.412;5.436;2023-03-26T18:41:01;100706.03;;;6.22;77.74